createdAt,value
2022-08-11T00:02:35.000Z,15.69
2022-08-11T00:07:35.000Z,15.61
2022-08-11T00:12:34.000Z,15.52
2022-08-11T00:17:34.000Z,15.46
2022-08-11T00:22:35.000Z,15.43
2022-08-11T00:27:35.000Z,15.38
2022-08-11T00:32:34.000Z,15.36
2022-08-11T00:37:35.000Z,15.31
2022-08-11T00:42:35.000Z,15.12
2022-08-11T00:47:35.000Z,15.12
2022-08-11T00:52:35.000Z,15.13
2022-08-11T00:57:48.000Z,15.02
2022-08-11T01:02:40.000Z,15.02
2022-08-11T01:08:13.000Z,14.92
2022-08-11T01:12:35.000Z,14.89
2022-08-11T01:17:35.000Z,14.76
2022-08-11T01:22:35.000Z,14.62
2022-08-11T01:27:35.000Z,14.5
2022-08-11T01:32:35.000Z,14.43
2022-08-11T01:37:34.000Z,14.37
2022-08-11T01:42:35.000Z,14.3
2022-08-11T01:47:35.000Z,14.24
2022-08-11T01:52:45.000Z,14.19
2022-08-11T01:57:35.000Z,14.16
2022-08-11T02:02:35.000Z,14.17
2022-08-11T02:07:34.000Z,14.1
2022-08-11T02:12:35.000Z,14.1
2022-08-11T02:17:35.000Z,14.04
2022-08-11T02:22:34.000Z,14.05
2022-08-11T02:27:34.000Z,14.1
2022-08-11T02:32:40.000Z,14.16
2022-08-11T02:37:35.000Z,14.19
2022-08-11T02:42:52.000Z,14.2
2022-08-11T02:47:37.000Z,14.22
2022-08-11T02:52:35.000Z,14.35
2022-08-11T03:02:35.000Z,14.54
2022-08-11T03:07:39.000Z,14.57
2022-08-11T03:12:35.000Z,14.57
2022-08-11T03:17:35.000Z,14.61
2022-08-11T03:22:35.000Z,14.68
2022-08-11T03:27:35.000Z,14.74
2022-08-11T03:37:35.000Z,14.99
2022-08-11T03:42:34.000Z,15.14
2022-08-11T03:47:34.000Z,15.36
2022-08-11T03:52:35.000Z,15.44
2022-08-11T03:57:35.000Z,15.65
2022-08-11T04:02:35.000Z,15.65
2022-08-11T04:07:35.000Z,15.82
2022-08-11T04:12:46.000Z,16.02
2022-08-11T04:17:34.000Z,16.05
2022-08-11T04:22:34.000Z,16.26
2022-08-11T04:27:47.000Z,16.48
2022-08-11T04:32:34.000Z,16.66
2022-08-11T04:37:35.000Z,16.83
2022-08-11T04:42:41.000Z,17.04
2022-08-11T04:47:35.000Z,17.3
2022-08-11T04:52:46.000Z,17.37
2022-08-11T04:57:34.000Z,17.47
2022-08-11T05:02:35.000Z,17.58
2022-08-11T05:07:34.000Z,17.76
2022-08-11T05:12:35.000Z,18.13
2022-08-11T05:17:35.000Z,18.13
2022-08-11T05:22:35.000Z,18.29
2022-08-11T05:27:34.000Z,18.56
2022-08-11T05:32:34.000Z,19.18
2022-08-11T05:37:37.000Z,19.64
2022-08-11T05:42:40.000Z,20.54
2022-08-11T05:47:35.000Z,24.7
2022-08-11T05:58:01.000Z,30.63
2022-08-11T06:02:34.000Z,30.63
2022-08-11T06:07:35.000Z,32.74
2022-08-11T06:12:35.000Z,34.61
2022-08-11T06:17:34.000Z,34.62
2022-08-11T06:22:35.000Z,34.57
2022-08-11T06:27:35.000Z,35.67
2022-08-11T06:32:35.000Z,36.45
2022-08-11T06:37:34.000Z,36.84
2022-08-11T06:42:35.000Z,37.76
2022-08-11T06:47:34.000Z,37.67
2022-08-11T06:52:46.000Z,37.67
2022-08-11T06:57:41.000Z,38.72
2022-08-11T07:02:41.000Z,38.42
2022-08-11T07:07:34.000Z,38.02
2022-08-11T07:12:35.000Z,38.02
2022-08-11T07:17:35.000Z,38.28
2022-08-11T07:22:35.000Z,39.27
2022-08-11T07:27:35.000Z,39.61
2022-08-11T07:32:35.000Z,38.69
2022-08-11T07:37:35.000Z,36.81
2022-08-11T07:42:35.000Z,36.63
2022-08-11T07:47:34.000Z,35.29
2022-08-11T07:52:35.000Z,30.62
2022-08-11T07:58:25.000Z,32.93
2022-08-11T08:02:39.000Z,31.12
2022-08-11T08:07:35.000Z,28.53
2022-08-11T08:12:35.000Z,27.95
2022-08-11T08:17:34.000Z,30.18
2022-08-11T08:22:49.000Z,32.86
2022-08-11T08:27:38.000Z,35.69
2022-08-11T08:32:34.000Z,35.69
2022-08-11T08:37:57.000Z,37.97
2022-08-11T08:42:35.000Z,38.53
2022-08-11T08:47:53.000Z,39.12
2022-08-11T08:52:49.000Z,34.87
2022-08-11T08:57:34.000Z,33.39
2022-08-11T09:02:45.000Z,35.77
2022-08-11T09:07:34.000Z,34.11
2022-08-11T09:12:56.000Z,30.92
2022-08-11T09:22:35.000Z,29.23
2022-08-11T09:27:35.000Z,28.16
2022-08-11T09:32:35.000Z,27.3
2022-08-11T09:38:06.000Z,26.92
2022-08-11T09:42:35.000Z,26.39
2022-08-11T09:47:35.000Z,26.42
2022-08-11T09:52:34.000Z,26.67
2022-08-11T09:57:35.000Z,26.39
2022-08-11T10:02:34.000Z,25.71
2022-08-11T10:07:35.000Z,25.4
2022-08-11T10:12:35.000Z,25.4
2022-08-11T10:17:35.000Z,25.49
2022-08-11T10:22:37.000Z,25.51
2022-08-11T10:28:43.000Z,26.37
2022-08-11T10:38:19.000Z,26.6
2022-08-11T10:43:05.000Z,26.79
2022-08-11T10:47:35.000Z,26.52
2022-08-11T10:52:35.000Z,26.4
2022-08-11T10:57:37.000Z,26.6
2022-08-11T11:02:34.000Z,26.77
2022-08-11T11:07:34.000Z,26.48
2022-08-11T11:12:34.000Z,26.22
2022-08-11T11:17:35.000Z,26.02
2022-08-11T11:22:34.000Z,25.88
2022-08-11T11:27:34.000Z,25.88
2022-08-11T11:32:35.000Z,25.87
2022-08-11T11:37:35.000Z,25.92
2022-08-11T11:42:35.000Z,26.04
2022-08-11T11:47:34.000Z,25.98
2022-08-11T11:52:35.000Z,26
2022-08-11T11:57:34.000Z,26
2022-08-11T12:02:34.000Z,25.92
2022-08-11T12:07:35.000Z,25.97
2022-08-11T12:12:34.000Z,25.78
2022-08-11T12:17:34.000Z,25.65
2022-08-11T12:22:35.000Z,25.49
2022-08-11T12:27:36.000Z,25.31
2022-08-11T12:37:34.000Z,25.36
2022-08-11T12:42:38.000Z,25.35
2022-08-11T12:47:35.000Z,25.34
2022-08-11T12:52:35.000Z,25.35
2022-08-11T12:57:47.000Z,25.36
2022-08-11T13:07:34.000Z,25.4
2022-08-11T13:12:35.000Z,25.29
2022-08-11T13:17:54.000Z,25.27
2022-08-11T13:22:35.000Z,25.25
2022-08-11T13:27:35.000Z,25.31
2022-08-11T13:32:35.000Z,25.2
2022-08-11T13:38:30.000Z,25.13
2022-08-11T13:42:34.000Z,25.13
2022-08-11T13:47:34.000Z,25.06
2022-08-11T13:52:35.000Z,25.04
2022-08-11T13:58:17.000Z,25.14
2022-08-11T14:02:40.000Z,25.17
2022-08-11T14:07:35.000Z,25.11
2022-08-11T14:12:35.000Z,25.01
2022-08-11T14:17:58.000Z,24.93
2022-08-11T14:22:35.000Z,24.77
2022-08-11T14:28:44.000Z,24.74
2022-08-11T14:37:35.000Z,24.72
2022-08-11T14:42:35.000Z,24.71
2022-08-11T14:47:35.000Z,24.74
2022-08-11T14:52:34.000Z,24.74
2022-08-11T14:58:06.000Z,24.63
2022-08-11T15:02:34.000Z,24.64
2022-08-11T15:07:34.000Z,24.56
2022-08-11T15:12:43.000Z,24.45
2022-08-11T15:17:53.000Z,24.37
2022-08-11T15:22:38.000Z,24.33
2022-08-11T15:27:35.000Z,24.35
2022-08-11T15:32:34.000Z,24.24
2022-08-11T15:37:35.000Z,24.17
2022-08-11T15:42:34.000Z,24.14
2022-08-11T15:47:35.000Z,24.07
2022-08-11T15:52:35.000Z,24.06
2022-08-11T15:57:34.000Z,23.98
2022-08-11T16:02:34.000Z,23.98
2022-08-11T16:07:36.000Z,23.91
2022-08-11T16:12:34.000Z,23.82
2022-08-11T16:17:35.000Z,23.67
2022-08-11T16:22:35.000Z,23.51
2022-08-11T16:27:35.000Z,23.36
2022-08-11T16:32:35.000Z,23.18
2022-08-11T16:37:35.000Z,22.99
2022-08-11T16:43:21.000Z,22.84
2022-08-11T16:48:47.000Z,22.61
2022-08-11T16:57:35.000Z,22.14
2022-08-11T17:02:35.000Z,21.89
2022-08-11T17:07:52.000Z,21.66
2022-08-11T17:12:35.000Z,21.45
2022-08-11T17:17:34.000Z,21.45
2022-08-11T17:22:34.000Z,21.27
2022-08-11T17:27:34.000Z,21.02
2022-08-11T17:32:36.000Z,20.75
2022-08-11T17:37:35.000Z,20.48
2022-08-11T17:42:34.000Z,20.18
2022-08-11T17:47:35.000Z,20.16
2022-08-11T17:52:35.000Z,20.09
2022-08-11T17:57:34.000Z,19.99
2022-08-11T18:02:45.000Z,19.81
2022-08-11T18:07:35.000Z,19.63
2022-08-11T18:12:34.000Z,19.41
2022-08-11T18:17:35.000Z,19.23
2022-08-11T18:22:35.000Z,19.18
2022-08-11T18:27:34.000Z,19.14
2022-08-11T18:32:56.000Z,19.06
2022-08-11T18:42:40.000Z,18.96
2022-08-11T18:47:39.000Z,18.86
2022-08-11T18:52:34.000Z,18.79
2022-08-11T18:57:35.000Z,18.69
2022-08-11T19:07:35.000Z,18.5
2022-08-11T19:12:35.000Z,18.39
2022-08-11T19:17:55.000Z,18.35
2022-08-11T19:22:34.000Z,18.23
2022-08-11T19:27:35.000Z,18.13
2022-08-11T19:32:35.000Z,18.1
2022-08-11T19:37:35.000Z,18.1
2022-08-11T19:42:34.000Z,18.08
2022-08-11T19:47:34.000Z,18.02
2022-08-11T19:52:34.000Z,17.93
2022-08-11T19:57:35.000Z,17.88
2022-08-11T20:02:35.000Z,17.8
2022-08-11T20:07:35.000Z,17.71
2022-08-11T20:12:35.000Z,17.61
2022-08-11T20:17:35.000Z,17.51
2022-08-11T20:22:35.000Z,17.45
2022-08-11T20:27:35.000Z,17.43
2022-08-11T20:32:35.000Z,17.48
2022-08-11T20:37:34.000Z,17.46
2022-08-11T20:42:40.000Z,17.33
2022-08-11T20:47:35.000Z,17.33
2022-08-11T20:52:35.000Z,17.17
2022-08-11T20:58:14.000Z,17.14
2022-08-11T21:02:35.000Z,17.12
2022-08-11T21:07:39.000Z,17.04
2022-08-11T21:12:38.000Z,16.88
2022-08-11T21:17:38.000Z,16.73
2022-08-11T21:22:38.000Z,16.75
2022-08-11T21:27:35.000Z,16.71
2022-08-11T21:32:34.000Z,16.66
2022-08-11T21:37:35.000Z,16.61
2022-08-11T21:42:35.000Z,16.53
2022-08-11T21:47:54.000Z,16.38
2022-08-11T21:52:35.000Z,16.33
2022-08-11T21:57:34.000Z,16.26
2022-08-11T22:02:35.000Z,16.26
2022-08-11T22:07:35.000Z,16.23
2022-08-11T22:12:54.000Z,16.17
2022-08-11T22:17:35.000Z,16.07
2022-08-11T22:22:36.000Z,15.98
2022-08-11T22:27:34.000Z,15.99
2022-08-11T22:32:35.000Z,15.92
2022-08-11T22:37:37.000Z,15.86
2022-08-11T22:42:44.000Z,15.85
2022-08-11T22:47:38.000Z,15.76
2022-08-11T22:52:35.000Z,15.7
2022-08-11T22:57:35.000Z,15.68
2022-08-11T23:02:34.000Z,15.47
2022-08-11T23:08:01.000Z,15.36
2022-08-11T23:12:35.000Z,15.28
2022-08-11T23:17:35.000Z,15.33
2022-08-11T23:27:34.000Z,15.15
2022-08-11T23:32:35.000Z,14.99
2022-08-11T23:37:34.000Z,14.88
2022-08-11T23:42:35.000Z,14.79
2022-08-11T23:47:35.000Z,14.79
2022-08-11T23:52:35.000Z,14.76
2022-08-11T23:57:34.000Z,14.8
